ケープタウン の空港の天気 - METARとTAF

ケープタウン国際空港 ( FACT / CPT ) - 南アフリカ ケープタウン
飛行場実況気象(Metar)
観測時間10/18 05:00 SAST (10/18 03:00 UTC)
風向・風速北北西 3m/s
視程10km以上
天気現象
なし
気温14℃
湿度88%
気圧1014hPa
METARFACT 180300Z 34006KT CAVOK 14/12 Q1014 NOSIG
過去の天気等 Google飛行場航空写真 Wunderground天気予報

過去48時間のMETAR

飛行場予報(TAF)
発表時間: 10/18 00:00 SAST (10/17 22:00 UTC)
予報対象時間: 18日2時 SAST ~ 19日8時 SAST
風向・風速南南西 4m/s
視程10km以上
なし
18日11時 SAST から
風向・風速南南西 5m/s
視程10km以上
少しの雲 雲底高度 910m
18日21時 SAST ~ 19日5時 SAST に 確率 30% で一時的に
全天の8割程度の雲 雲底高度 370m
TAF FACT 172200Z 1800/1906 20008KT CAVOK
FM180900 20010KT 9999 FEW030
PROB30 TEMPO 1819/1903 BKN012 TX26/1812Z TN12/1804Z